sensor_id;sensor_type;location;lat;lon;timestamp;temperature;humidity
71994;DHT22;59861;50.268;8.648;2023-05-25T00:00:14;17.30;67.00
71994;DHT22;59861;50.268;8.648;2023-05-25T00:02:41;17.30;67.10
71994;DHT22;59861;50.268;8.648;2023-05-25T00:05:09;17.30;67.10
71994;DHT22;59861;50.268;8.648;2023-05-25T00:07:36;17.30;67.00
71994;DHT22;59861;50.268;8.648;2023-05-25T00:10:03;17.30;67.00
71994;DHT22;59861;50.268;8.648;2023-05-25T00:12:30;17.30;67.10
71994;DHT22;59861;50.268;8.648;2023-05-25T00:14:57;17.30;67.10
71994;DHT22;59861;50.268;8.648;2023-05-25T00:17:24;17.30;67.00
71994;DHT22;59861;50.268;8.648;2023-05-25T00:19:52;17.30;66.90
71994;DHT22;59861;50.268;8.648;2023-05-25T00:22:21;17.30;67.00
71994;DHT22;59861;50.268;8.648;2023-05-25T00:24:48;17.30;67.90
71994;DHT22;59861;50.268;8.648;2023-05-25T00:27:14;17.30;66.90
71994;DHT22;59861;50.268;8.648;2023-05-25T00:29:41;17.30;66.90
71994;DHT22;59861;50.268;8.648;2023-05-25T00:32:08;17.30;67.00
71994;DHT22;59861;50.268;8.648;2023-05-25T00:34:35;17.30;66.80
71994;DHT22;59861;50.268;8.648;2023-05-25T00:37:02;17.30;67.00
71994;DHT22;59861;50.268;8.648;2023-05-25T00:39:29;17.30;66.80
71994;DHT22;59861;50.268;8.648;2023-05-25T00:41:55;17.30;67.50
71994;DHT22;59861;50.268;8.648;2023-05-25T00:44:23;17.30;66.90
71994;DHT22;59861;50.268;8.648;2023-05-25T00:46:50;17.30;66.90
71994;DHT22;59861;50.268;8.648;2023-05-25T00:49:18;17.30;66.80
71994;DHT22;59861;50.268;8.648;2023-05-25T00:51:46;17.30;66.80
71994;DHT22;59861;50.268;8.648;2023-05-25T00:54:17;17.30;66.80
71994;DHT22;59861;50.268;8.648;2023-05-25T00:56:51;17.30;66.90
71994;DHT22;59861;50.268;8.648;2023-05-25T00:59:28;17.30;66.80
71994;DHT22;59861;50.268;8.648;2023-05-25T01:01:56;17.30;66.70
71994;DHT22;59861;50.268;8.648;2023-05-25T01:04:24;17.20;66.70
71994;DHT22;59861;50.268;8.648;2023-05-25T01:06:53;17.20;66.70
71994;DHT22;59861;50.268;8.648;2023-05-25T01:09:22;17.20;66.70
71994;DHT22;59861;50.268;8.648;2023-05-25T01:11:50;17.20;66.70
71994;DHT22;59861;50.268;8.648;2023-05-25T01:14:18;17.20;66.60
71994;DHT22;59861;50.268;8.648;2023-05-25T01:16:47;17.20;66.70
71994;DHT22;59861;50.268;8.648;2023-05-25T01:19:13;17.20;66.70
71994;DHT22;59861;50.268;8.648;2023-05-25T01:21:45;17.20;66.70
71994;DHT22;59861;50.268;8.648;2023-05-25T01:24:15;17.20;66.60
71994;DHT22;59861;50.268;8.648;2023-05-25T01:26:46;17.20;66.70
71994;DHT22;59861;50.268;8.648;2023-05-25T01:29:14;17.20;66.70
71994;DHT22;59861;50.268;8.648;2023-05-25T01:31:42;17.20;66.60
71994;DHT22;59861;50.268;8.648;2023-05-25T01:34:11;17.20;66.60
71994;DHT22;59861;50.268;8.648;2023-05-25T01:36:39;17.20;66.60
71994;DHT22;59861;50.268;8.648;2023-05-25T01:39:06;17.20;66.50
71994;DHT22;59861;50.268;8.648;2023-05-25T01:41:34;17.20;66.60
71994;DHT22;59861;50.268;8.648;2023-05-25T01:44:01;17.20;66.50
71994;DHT22;59861;50.268;8.648;2023-05-25T01:46:36;17.20;66.50
71994;DHT22;59861;50.268;8.648;2023-05-25T01:49:20;17.20;66.60
71994;DHT22;59861;50.268;8.648;2023-05-25T01:51:52;17.20;66.50
71994;DHT22;59861;50.268;8.648;2023-05-25T01:54:19;17.20;66.50
71994;DHT22;59861;50.268;8.648;2023-05-25T01:56:48;17.20;66.50
71994;DHT22;59861;50.268;8.648;2023-05-25T01:59:15;17.20;66.50
71994;DHT22;59861;50.268;8.648;2023-05-25T02:01:43;17.20;66.50
71994;DHT22;59861;50.268;8.648;2023-05-25T02:04:11;17.20;66.50
71994;DHT22;59861;50.268;8.648;2023-05-25T02:06:38;17.20;66.40
71994;DHT22;59861;50.268;8.648;2023-05-25T02:09:05;17.20;66.40
71994;DHT22;59861;50.268;8.648;2023-05-25T02:11:32;17.20;66.50
71994;DHT22;59861;50.268;8.648;2023-05-25T02:13:58;17.20;66.30
71994;DHT22;59861;50.268;8.648;2023-05-25T02:16:25;17.20;66.30
71994;DHT22;59861;50.268;8.648;2023-05-25T02:18:52;17.20;66.30
71994;DHT22;59861;50.268;8.648;2023-05-25T02:21:19;17.20;66.40
71994;DHT22;59861;50.268;8.648;2023-05-25T02:23:46;17.20;66.30
71994;DHT22;59861;50.268;8.648;2023-05-25T02:26:14;17.20;66.40
71994;DHT22;59861;50.268;8.648;2023-05-25T02:28:40;17.20;66.40
71994;DHT22;59861;50.268;8.648;2023-05-25T02:31:07;17.20;66.30
71994;DHT22;59861;50.268;8.648;2023-05-25T02:33:34;17.20;66.20
71994;DHT22;59861;50.268;8.648;2023-05-25T02:36:01;17.10;66.30
71994;DHT22;59861;50.268;8.648;2023-05-25T02:38:28;17.20;66.30
71994;DHT22;59861;50.268;8.648;2023-05-25T02:40:54;17.10;66.30
71994;DHT22;59861;50.268;8.648;2023-05-25T02:43:21;17.20;66.20
71994;DHT22;59861;50.268;8.648;2023-05-25T02:45:48;17.20;66.20
71994;DHT22;59861;50.268;8.648;2023-05-25T02:48:15;17.10;66.10
71994;DHT22;59861;50.268;8.648;2023-05-25T02:50:42;17.10;66.10
71994;DHT22;59861;50.268;8.648;2023-05-25T02:53:08;17.10;66.10
71994;DHT22;59861;50.268;8.648;2023-05-25T02:55:35;17.10;66.10
71994;DHT22;59861;50.268;8.648;2023-05-25T02:58:04;17.10;66.00
71994;DHT22;59861;50.268;8.648;2023-05-25T03:00:31;17.10;66.00
71994;DHT22;59861;50.268;8.648;2023-05-25T03:02:58;17.10;66.10
71994;DHT22;59861;50.268;8.648;2023-05-25T03:05:24;17.10;66.00
71994;DHT22;59861;50.268;8.648;2023-05-25T03:07:52;17.10;66.10
71994;DHT22;59861;50.268;8.648;2023-05-25T03:10:19;17.10;66.10
71994;DHT22;59861;50.268;8.648;2023-05-25T03:12:46;17.10;65.90
71994;DHT22;59861;50.268;8.648;2023-05-25T03:15:12;17.10;66.10
71994;DHT22;59861;50.268;8.648;2023-05-25T03:17:39;17.10;65.90
71994;DHT22;59861;50.268;8.648;2023-05-25T03:20:06;17.10;66.20
71994;DHT22;59861;50.268;8.648;2023-05-25T03:22:35;17.10;66.00
71994;DHT22;59861;50.268;8.648;2023-05-25T03:25:02;17.10;66.10
71994;DHT22;59861;50.268;8.648;2023-05-25T03:27:29;17.10;66.00
71994;DHT22;59861;50.268;8.648;2023-05-25T03:29:56;17.10;65.90
71994;DHT22;59861;50.268;8.648;2023-05-25T03:32:22;17.10;65.90
71994;DHT22;59861;50.268;8.648;2023-05-25T03:34:49;17.10;65.80
71994;DHT22;59861;50.268;8.648;2023-05-25T03:37:16;17.10;65.80
71994;DHT22;59861;50.268;8.648;2023-05-25T03:39:43;17.10;65.80
71994;DHT22;59861;50.268;8.648;2023-05-25T03:42:10;17.10;65.80
71994;DHT22;59861;50.268;8.648;2023-05-25T03:44:36;17.00;65.80
71994;DHT22;59861;50.268;8.648;2023-05-25T03:47:03;17.10;65.80
71994;DHT22;59861;50.268;8.648;2023-05-25T03:49:30;17.00;65.80
71994;DHT22;59861;50.268;8.648;2023-05-25T03:51:57;17.00;65.70
71994;DHT22;59861;50.268;8.648;2023-05-25T03:54:27;17.00;65.70
71994;DHT22;59861;50.268;8.648;2023-05-25T03:56:54;17.00;65.70
71994;DHT22;59861;50.268;8.648;2023-05-25T03:59:21;17.10;65.70
71994;DHT22;59861;50.268;8.648;2023-05-25T04:01:48;17.00;65.80
71994;DHT22;59861;50.268;8.648;2023-05-25T04:04:15;17.00;65.80
71994;DHT22;59861;50.268;8.648;2023-05-25T04:06:42;17.10;66.00
71994;DHT22;59861;50.268;8.648;2023-05-25T04:09:10;17.00;65.80
71994;DHT22;59861;50.268;8.648;2023-05-25T04:11:37;17.00;66.80
71994;DHT22;59861;50.268;8.648;2023-05-25T04:14:04;17.00;65.80
71994;DHT22;59861;50.268;8.648;2023-05-25T04:16:31;17.10;65.80
71994;DHT22;59861;50.268;8.648;2023-05-25T04:18:58;17.10;65.90
71994;DHT22;59861;50.268;8.648;2023-05-25T04:21:24;17.10;65.80
71994;DHT22;59861;50.268;8.648;2023-05-25T04:23:51;17.00;65.90
71994;DHT22;59861;50.268;8.648;2023-05-25T04:26:18;17.00;65.70
71994;DHT22;59861;50.268;8.648;2023-05-25T04:28:45;17.00;65.70
71994;DHT22;59861;50.268;8.648;2023-05-25T04:31:12;17.00;65.70
71994;DHT22;59861;50.268;8.648;2023-05-25T04:33:38;17.00;65.70
71994;DHT22;59861;50.268;8.648;2023-05-25T04:36:05;17.00;65.70
71994;DHT22;59861;50.268;8.648;2023-05-25T04:38:33;17.00;65.70
71994;DHT22;59861;50.268;8.648;2023-05-25T04:41:00;17.10;65.70
71994;DHT22;59861;50.268;8.648;2023-05-25T04:43:27;17.00;65.60
71994;DHT22;59861;50.268;8.648;2023-05-25T04:45:55;17.00;65.70
71994;DHT22;59861;50.268;8.648;2023-05-25T04:48:22;17.00;65.80
71994;DHT22;59861;50.268;8.648;2023-05-25T04:50:49;17.00;65.70
71994;DHT22;59861;50.268;8.648;2023-05-25T04:53:17;17.00;65.70
71994;DHT22;59861;50.268;8.648;2023-05-25T04:55:45;17.00;65.60
71994;DHT22;59861;50.268;8.648;2023-05-25T04:58:11;17.00;65.70
71994;DHT22;59861;50.268;8.648;2023-05-25T05:00:38;17.00;65.50
71994;DHT22;59861;50.268;8.648;2023-05-25T05:03:05;17.10;65.60
71994;DHT22;59861;50.268;8.648;2023-05-25T05:05:33;17.00;65.60
71994;DHT22;59861;50.268;8.648;2023-05-25T05:08:01;17.00;65.60
71994;DHT22;59861;50.268;8.648;2023-05-25T05:10:28;17.00;65.70
71994;DHT22;59861;50.268;8.648;2023-05-25T05:12:55;17.00;65.60
71994;DHT22;59861;50.268;8.648;2023-05-25T05:15:22;17.00;65.70
71994;DHT22;59861;50.268;8.648;2023-05-25T05:17:49;17.00;65.80
71994;DHT22;59861;50.268;8.648;2023-05-25T05:20:15;17.00;65.70
71994;DHT22;59861;50.268;8.648;2023-05-25T05:22:42;17.00;65.70
71994;DHT22;59861;50.268;8.648;2023-05-25T05:25:10;17.00;65.70
71994;DHT22;59861;50.268;8.648;2023-05-25T05:27:37;17.00;65.80
71994;DHT22;59861;50.268;8.648;2023-05-25T05:30:04;17.00;65.60
71994;DHT22;59861;50.268;8.648;2023-05-25T05:32:31;17.00;65.80
71994;DHT22;59861;50.268;8.648;2023-05-25T05:34:58;17.00;65.70
71994;DHT22;59861;50.268;8.648;2023-05-25T05:37:25;17.00;66.80
71994;DHT22;59861;50.268;8.648;2023-05-25T05:39:52;17.00;65.70
71994;DHT22;59861;50.268;8.648;2023-05-25T05:42:19;17.00;65.70
71994;DHT22;59861;50.268;8.648;2023-05-25T05:44:45;17.00;65.70
71994;DHT22;59861;50.268;8.648;2023-05-25T05:47:12;17.00;65.70
71994;DHT22;59861;50.268;8.648;2023-05-25T05:49:39;17.00;65.90
71994;DHT22;59861;50.268;8.648;2023-05-25T05:52:07;17.00;65.70
71994;DHT22;59861;50.268;8.648;2023-05-25T05:54:35;17.00;65.80
71994;DHT22;59861;50.268;8.648;2023-05-25T05:57:01;17.00;65.70
71994;DHT22;59861;50.268;8.648;2023-05-25T05:59:28;17.00;65.70
71994;DHT22;59861;50.268;8.648;2023-05-25T06:01:55;17.00;65.70
71994;DHT22;59861;50.268;8.648;2023-05-25T06:04:22;17.00;65.70
71994;DHT22;59861;50.268;8.648;2023-05-25T06:06:50;17.00;65.70
71994;DHT22;59861;50.268;8.648;2023-05-25T06:09:17;17.00;65.80
71994;DHT22;59861;50.268;8.648;2023-05-25T06:11:44;17.00;65.90
71994;DHT22;59861;50.268;8.648;2023-05-25T06:14:11;17.00;65.80
71994;DHT22;59861;50.268;8.648;2023-05-25T06:16:37;17.00;66.00
71994;DHT22;59861;50.268;8.648;2023-05-25T06:19:04;17.00;65.80
71994;DHT22;59861;50.268;8.648;2023-05-25T06:21:31;17.00;65.80
71994;DHT22;59861;50.268;8.648;2023-05-25T06:23:58;17.00;65.90
71994;DHT22;59861;50.268;8.648;2023-05-25T06:26:25;17.00;65.70
71994;DHT22;59861;50.268;8.648;2023-05-25T06:28:52;17.00;65.80
71994;DHT22;59861;50.268;8.648;2023-05-25T06:31:19;17.00;66.80
71994;DHT22;59861;50.268;8.648;2023-05-25T06:33:46;17.00;66.00
71994;DHT22;59861;50.268;8.648;2023-05-25T06:36:12;17.00;65.90
71994;DHT22;59861;50.268;8.648;2023-05-25T06:38:40;17.00;65.90
71994;DHT22;59861;50.268;8.648;2023-05-25T06:41:07;17.00;66.70
71994;DHT22;59861;50.268;8.648;2023-05-25T06:43:34;17.00;66.00
71994;DHT22;59861;50.268;8.648;2023-05-25T06:46:01;17.00;66.00
71994;DHT22;59861;50.268;8.648;2023-05-25T06:48:28;17.00;65.90
71994;DHT22;59861;50.268;8.648;2023-05-25T06:50:54;17.00;67.00
71994;DHT22;59861;50.268;8.648;2023-05-25T06:53:21;17.00;65.90
71994;DHT22;59861;50.268;8.648;2023-05-25T06:55:48;17.00;66.00
71994;DHT22;59861;50.268;8.648;2023-05-25T06:58:15;17.00;66.00
71994;DHT22;59861;50.268;8.648;2023-05-25T07:00:42;17.00;66.00
71994;DHT22;59861;50.268;8.648;2023-05-25T07:03:09;17.00;66.00
71994;DHT22;59861;50.268;8.648;2023-05-25T07:05:37;17.00;65.90
71994;DHT22;59861;50.268;8.648;2023-05-25T07:08:04;17.00;66.00
71994;DHT22;59861;50.268;8.648;2023-05-25T07:10:31;17.00;66.00
71994;DHT22;59861;50.268;8.648;2023-05-25T07:12:57;17.00;66.00
71994;DHT22;59861;50.268;8.648;2023-05-25T07:15:24;17.00;65.90
71994;DHT22;59861;50.268;8.648;2023-05-25T07:17:51;17.00;65.90
71994;DHT22;59861;50.268;8.648;2023-05-25T07:20:18;17.00;66.00
71994;DHT22;59861;50.268;8.648;2023-05-25T07:22:46;17.00;66.00
71994;DHT22;59861;50.268;8.648;2023-05-25T07:25:13;17.00;65.90
71994;DHT22;59861;50.268;8.648;2023-05-25T07:27:40;17.00;65.90
71994;DHT22;59861;50.268;8.648;2023-05-25T07:30:07;17.00;66.00
71994;DHT22;59861;50.268;8.648;2023-05-25T07:32:34;17.00;65.90
71994;DHT22;59861;50.268;8.648;2023-05-25T07:35:03;17.00;65.90
71994;DHT22;59861;50.268;8.648;2023-05-25T07:37:30;17.00;66.00
71994;DHT22;59861;50.268;8.648;2023-05-25T07:39:57;17.00;65.80
71994;DHT22;59861;50.268;8.648;2023-05-25T07:42:23;17.00;65.90
71994;DHT22;59861;50.268;8.648;2023-05-25T07:44:50;17.00;65.90
71994;DHT22;59861;50.268;8.648;2023-05-25T07:47:17;17.00;65.90
71994;DHT22;59861;50.268;8.648;2023-05-25T07:49:44;17.00;65.90
71994;DHT22;59861;50.268;8.648;2023-05-25T07:52:11;17.00;65.80
71994;DHT22;59861;50.268;8.648;2023-05-25T07:54:37;17.00;65.90
71994;DHT22;59861;50.268;8.648;2023-05-25T07:57:04;17.00;65.90
71994;DHT22;59861;50.268;8.648;2023-05-25T07:59:32;17.00;66.00
71994;DHT22;59861;50.268;8.648;2023-05-25T08:01:59;17.00;66.00
71994;DHT22;59861;50.268;8.648;2023-05-25T08:04:26;17.00;66.00
71994;DHT22;59861;50.268;8.648;2023-05-25T08:06:53;17.00;66.00
71994;DHT22;59861;50.268;8.648;2023-05-25T08:09:20;17.00;65.90
71994;DHT22;59861;50.268;8.648;2023-05-25T08:11:47;17.00;66.00
71994;DHT22;59861;50.268;8.648;2023-05-25T08:14:14;17.00;66.00
71994;DHT22;59861;50.268;8.648;2023-05-25T08:16:41;17.00;66.00
71994;DHT22;59861;50.268;8.648;2023-05-25T08:19:08;17.00;66.00
71994;DHT22;59861;50.268;8.648;2023-05-25T08:21:35;17.10;66.10
71994;DHT22;59861;50.268;8.648;2023-05-25T08:24:03;17.00;66.00
71994;DHT22;59861;50.268;8.648;2023-05-25T08:26:30;17.00;66.00
71994;DHT22;59861;50.268;8.648;2023-05-25T08:28:57;17.00;66.10
71994;DHT22;59861;50.268;8.648;2023-05-25T08:31:24;17.00;66.10
71994;DHT22;59861;50.268;8.648;2023-05-25T08:33:51;17.00;66.10
71994;DHT22;59861;50.268;8.648;2023-05-25T08:36:18;17.00;66.00
71994;DHT22;59861;50.268;8.648;2023-05-25T08:38:44;17.00;66.10
71994;DHT22;59861;50.268;8.648;2023-05-25T08:41:11;17.00;66.10
71994;DHT22;59861;50.268;8.648;2023-05-25T08:43:40;17.00;66.10
71994;DHT22;59861;50.268;8.648;2023-05-25T08:46:08;17.10;66.20
71994;DHT22;59861;50.268;8.648;2023-05-25T08:48:35;17.00;66.20
71994;DHT22;59861;50.268;8.648;2023-05-25T08:51:06;17.00;66.20
71994;DHT22;59861;50.268;8.648;2023-05-25T08:53:38;17.00;66.20
71994;DHT22;59861;50.268;8.648;2023-05-25T08:56:08;17.00;66.10
71994;DHT22;59861;50.268;8.648;2023-05-25T08:58:31;17.00;66.10
71994;DHT22;59861;50.268;8.648;2023-05-25T09:01:01;17.00;66.20
71994;DHT22;59861;50.268;8.648;2023-05-25T09:03:27;17.00;66.20
71994;DHT22;59861;50.268;8.648;2023-05-25T09:05:55;17.00;66.30
71994;DHT22;59861;50.268;8.648;2023-05-25T09:08:22;17.00;66.20
71994;DHT22;59861;50.268;8.648;2023-05-25T09:10:50;17.00;66.20
71994;DHT22;59861;50.268;8.648;2023-05-25T09:13:17;17.00;66.40
71994;DHT22;59861;50.268;8.648;2023-05-25T09:15:44;17.00;66.40
71994;DHT22;59861;50.268;8.648;2023-05-25T09:18:11;17.00;66.30
71994;DHT22;59861;50.268;8.648;2023-05-25T09:20:38;17.10;66.30
71994;DHT22;59861;50.268;8.648;2023-05-25T09:23:05;17.10;66.40
71994;DHT22;59861;50.268;8.648;2023-05-25T09:25:32;17.00;66.30
71994;DHT22;59861;50.268;8.648;2023-05-25T09:27:59;17.00;66.30
71994;DHT22;59861;50.268;8.648;2023-05-25T09:30:26;17.00;66.40
71994;DHT22;59861;50.268;8.648;2023-05-25T09:32:54;17.10;66.40
71994;DHT22;59861;50.268;8.648;2023-05-25T09:35:21;17.00;66.40
71994;DHT22;59861;50.268;8.648;2023-05-25T09:37:49;17.00;66.40
71994;DHT22;59861;50.268;8.648;2023-05-25T09:40:17;17.00;66.40
71994;DHT22;59861;50.268;8.648;2023-05-25T09:42:44;17.00;66.40
71994;DHT22;59861;50.268;8.648;2023-05-25T09:45:11;17.00;66.40
71994;DHT22;59861;50.268;8.648;2023-05-25T09:47:37;17.10;66.50
71994;DHT22;59861;50.268;8.648;2023-05-25T09:50:05;17.00;66.40
71994;DHT22;59861;50.268;8.648;2023-05-25T09:52:32;17.00;66.40
71994;DHT22;59861;50.268;8.648;2023-05-25T09:54:59;17.10;66.50
71994;DHT22;59861;50.268;8.648;2023-05-25T09:57:27;17.10;66.60
71994;DHT22;59861;50.268;8.648;2023-05-25T09:59:54;17.00;66.50
71994;DHT22;59861;50.268;8.648;2023-05-25T10:02:21;17.10;66.60
71994;DHT22;59861;50.268;8.648;2023-05-25T10:04:47;17.10;66.70
71994;DHT22;59861;50.268;8.648;2023-05-25T10:07:14;17.10;66.70
71994;DHT22;59861;50.268;8.648;2023-05-25T10:09:42;17.10;66.60
71994;DHT22;59861;50.268;8.648;2023-05-25T10:12:10;17.00;67.60
71994;DHT22;59861;50.268;8.648;2023-05-25T10:14:39;17.00;66.60
71994;DHT22;59861;50.268;8.648;2023-05-25T10:17:06;17.00;66.60
71994;DHT22;59861;50.268;8.648;2023-05-25T10:19:35;17.10;66.70
71994;DHT22;59861;50.268;8.648;2023-05-25T10:22:07;17.10;66.70
71994;DHT22;59861;50.268;8.648;2023-05-25T10:24:33;17.10;66.70
71994;DHT22;59861;50.268;8.648;2023-05-25T10:27:02;17.10;66.70
71994;DHT22;59861;50.268;8.648;2023-05-25T10:29:29;17.10;66.70
71994;DHT22;59861;50.268;8.648;2023-05-25T10:31:57;17.00;66.60
71994;DHT22;59861;50.268;8.648;2023-05-25T10:34:24;17.00;66.60
71994;DHT22;59861;50.268;8.648;2023-05-25T10:36:52;17.10;66.80
71994;DHT22;59861;50.268;8.648;2023-05-25T10:39:20;17.10;66.70
71994;DHT22;59861;50.268;8.648;2023-05-25T10:41:49;17.10;66.70
71994;DHT22;59861;50.268;8.648;2023-05-25T10:44:17;17.10;66.80
71994;DHT22;59861;50.268;8.648;2023-05-25T10:46:44;17.10;66.90
71994;DHT22;59861;50.268;8.648;2023-05-25T10:49:10;17.10;66.80
71994;DHT22;59861;50.268;8.648;2023-05-25T10:51:38;17.10;66.80
71994;DHT22;59861;50.268;8.648;2023-05-25T10:54:05;17.10;66.90
71994;DHT22;59861;50.268;8.648;2023-05-25T10:56:32;17.10;66.80
71994;DHT22;59861;50.268;8.648;2023-05-25T10:58:59;17.10;66.90
71994;DHT22;59861;50.268;8.648;2023-05-25T11:01:26;17.10;66.80
71994;DHT22;59861;50.268;8.648;2023-05-25T11:03:55;17.10;66.90
71994;DHT22;59861;50.268;8.648;2023-05-25T11:07:08;17.10;66.90
71994;DHT22;59861;50.268;8.648;2023-05-25T11:11:19;17.10;66.80
71994;DHT22;59861;50.268;8.648;2023-05-25T11:13:47;17.10;66.80
71994;DHT22;59861;50.268;8.648;2023-05-25T11:18:53;17.10;66.90
71994;DHT22;59861;50.268;8.648;2023-05-25T11:23:56;17.10;66.90
71994;DHT22;59861;50.268;8.648;2023-05-25T11:26:24;17.10;66.90
71994;DHT22;59861;50.268;8.648;2023-05-25T11:28:51;17.10;66.90
71994;DHT22;59861;50.268;8.648;2023-05-25T11:31:19;17.10;66.90
71994;DHT22;59861;50.268;8.648;2023-05-25T11:33:47;17.10;66.90
71994;DHT22;59861;50.268;8.648;2023-05-25T11:36:16;17.10;66.90
71994;DHT22;59861;50.268;8.648;2023-05-25T11:38:44;17.10;67.00
71994;DHT22;59861;50.268;8.648;2023-05-25T11:41:14;17.10;66.80
71994;DHT22;59861;50.268;8.648;2023-05-25T11:43:43;17.10;67.00
71994;DHT22;59861;50.268;8.648;2023-05-25T11:46:10;17.10;66.90
71994;DHT22;59861;50.268;8.648;2023-05-25T11:48:41;17.10;67.00
71994;DHT22;59861;50.268;8.648;2023-05-25T11:51:05;17.10;67.00
71994;DHT22;59861;50.268;8.648;2023-05-25T11:53:32;17.10;67.00
71994;DHT22;59861;50.268;8.648;2023-05-25T11:55:59;17.10;67.00
71994;DHT22;59861;50.268;8.648;2023-05-25T11:58:31;17.10;67.00
71994;DHT22;59861;50.268;8.648;2023-05-25T12:00:54;17.10;67.10
71994;DHT22;59861;50.268;8.648;2023-05-25T12:03:30;17.10;67.00
71994;DHT22;59861;50.268;8.648;2023-05-25T12:05:57;17.10;67.10
71994;DHT22;59861;50.268;8.648;2023-05-25T12:08:33;17.10;67.20
71994;DHT22;59861;50.268;8.648;2023-05-25T12:11:01;17.10;67.00
71994;DHT22;59861;50.268;8.648;2023-05-25T12:13:29;17.10;67.00
71994;DHT22;59861;50.268;8.648;2023-05-25T12:15:56;17.10;67.00
71994;DHT22;59861;50.268;8.648;2023-05-25T12:18:29;17.10;67.00
71994;DHT22;59861;50.268;8.648;2023-05-25T12:20:54;17.10;67.00
71994;DHT22;59861;50.268;8.648;2023-05-25T12:23:22;17.10;67.00
71994;DHT22;59861;50.268;8.648;2023-05-25T12:25:49;17.10;67.00
71994;DHT22;59861;50.268;8.648;2023-05-25T12:28:17;17.10;66.70
71994;DHT22;59861;50.268;8.648;2023-05-25T12:30:44;17.10;67.00
71994;DHT22;59861;50.268;8.648;2023-05-25T12:33:12;17.10;67.00
71994;DHT22;59861;50.268;8.648;2023-05-25T12:35:46;17.10;67.00
71994;DHT22;59861;50.268;8.648;2023-05-25T12:38:18;17.10;67.10
71994;DHT22;59861;50.268;8.648;2023-05-25T12:40:46;17.10;67.10
71994;DHT22;59861;50.268;8.648;2023-05-25T12:43:13;17.10;67.00
71994;DHT22;59861;50.268;8.648;2023-05-25T12:45:41;17.20;67.20
71994;DHT22;59861;50.268;8.648;2023-05-25T12:48:08;17.20;67.10
71994;DHT22;59861;50.268;8.648;2023-05-25T12:50:35;17.10;67.10
71994;DHT22;59861;50.268;8.648;2023-05-25T12:53:02;17.10;67.10
71994;DHT22;59861;50.268;8.648;2023-05-25T12:55:29;17.10;67.10
71994;DHT22;59861;50.268;8.648;2023-05-25T12:57:58;17.10;67.10
71994;DHT22;59861;50.268;8.648;2023-05-25T13:00:26;17.20;67.20
71994;DHT22;59861;50.268;8.648;2023-05-25T13:02:53;17.10;67.10
71994;DHT22;59861;50.268;8.648;2023-05-25T13:05:21;17.10;67.20
71994;DHT22;59861;50.268;8.648;2023-05-25T13:07:48;17.10;67.20
71994;DHT22;59861;50.268;8.648;2023-05-25T13:10:15;17.10;67.20
71994;DHT22;59861;50.268;8.648;2023-05-25T13:12:43;17.20;67.30
71994;DHT22;59861;50.268;8.648;2023-05-25T13:15:10;17.20;67.40
71994;DHT22;59861;50.268;8.648;2023-05-25T13:17:39;17.20;67.20
71994;DHT22;59861;50.268;8.648;2023-05-25T13:20:05;17.20;67.40
71994;DHT22;59861;50.268;8.648;2023-05-25T13:22:32;17.20;67.30
71994;DHT22;59861;50.268;8.648;2023-05-25T13:24:59;17.20;67.30
71994;DHT22;59861;50.268;8.648;2023-05-25T13:27:26;17.20;67.40
71994;DHT22;59861;50.268;8.648;2023-05-25T13:29:53;17.20;67.40
71994;DHT22;59861;50.268;8.648;2023-05-25T13:32:20;17.20;67.40
71994;DHT22;59861;50.268;8.648;2023-05-25T13:34:47;17.20;67.30
71994;DHT22;59861;50.268;8.648;2023-05-25T13:37:15;17.20;67.40
71994;DHT22;59861;50.268;8.648;2023-05-25T13:39:42;17.20;67.40
71994;DHT22;59861;50.268;8.648;2023-05-25T13:42:09;17.20;67.40
71994;DHT22;59861;50.268;8.648;2023-05-25T13:44:35;17.20;67.40
71994;DHT22;59861;50.268;8.648;2023-05-25T13:47:02;17.20;67.40
71994;DHT22;59861;50.268;8.648;2023-05-25T13:49:29;17.20;67.50
71994;DHT22;59861;50.268;8.648;2023-05-25T13:51:56;17.20;68.30
71994;DHT22;59861;50.268;8.648;2023-05-25T13:54:23;17.20;67.50
71994;DHT22;59861;50.268;8.648;2023-05-25T13:56:49;17.20;67.50
71994;DHT22;59861;50.268;8.648;2023-05-25T13:59:16;17.20;67.40
71994;DHT22;59861;50.268;8.648;2023-05-25T14:01:43;17.20;67.40
71994;DHT22;59861;50.268;8.648;2023-05-25T14:04:10;17.20;67.40
71994;DHT22;59861;50.268;8.648;2023-05-25T14:06:39;17.20;67.40
71994;DHT22;59861;50.268;8.648;2023-05-25T14:09:06;17.20;67.40
71994;DHT22;59861;50.268;8.648;2023-05-25T14:11:33;17.20;67.50
71994;DHT22;59861;50.268;8.648;2023-05-25T14:14:00;17.20;67.50
71994;DHT22;59861;50.268;8.648;2023-05-25T14:16:26;17.20;67.50
71994;DHT22;59861;50.268;8.648;2023-05-25T14:18:53;17.20;67.50
71994;DHT22;59861;50.268;8.648;2023-05-25T14:21:21;17.20;67.50
71994;DHT22;59861;50.268;8.648;2023-05-25T14:23:48;17.20;67.50
71994;DHT22;59861;50.268;8.648;2023-05-25T14:26:15;17.20;67.60
71994;DHT22;59861;50.268;8.648;2023-05-25T14:28:41;17.20;67.60
71994;DHT22;59861;50.268;8.648;2023-05-25T14:31:08;17.20;67.60
71994;DHT22;59861;50.268;8.648;2023-05-25T14:33:37;17.20;67.60
71994;DHT22;59861;50.268;8.648;2023-05-25T14:36:03;17.20;67.60
71994;DHT22;59861;50.268;8.648;2023-05-25T14:38:30;17.20;67.60
71994;DHT22;59861;50.268;8.648;2023-05-25T14:40:57;17.20;67.60
71994;DHT22;59861;50.268;8.648;2023-05-25T14:43:24;17.20;67.60
71994;DHT22;59861;50.268;8.648;2023-05-25T14:45:51;17.20;67.60
71994;DHT22;59861;50.268;8.648;2023-05-25T14:48:18;17.20;67.70
71994;DHT22;59861;50.268;8.648;2023-05-25T14:50:47;17.20;67.70
71994;DHT22;59861;50.268;8.648;2023-05-25T14:53:13;17.20;67.70
71994;DHT22;59861;50.268;8.648;2023-05-25T14:55:40;17.20;67.60
71994;DHT22;59861;50.268;8.648;2023-05-25T14:58:07;17.20;67.60
71994;DHT22;59861;50.268;8.648;2023-05-25T15:00:34;17.20;67.60
71994;DHT22;59861;50.268;8.648;2023-05-25T15:03:01;17.20;67.80
71994;DHT22;59861;50.268;8.648;2023-05-25T15:05:28;17.20;67.70
71994;DHT22;59861;50.268;8.648;2023-05-25T15:07:54;17.20;67.70
71994;DHT22;59861;50.268;8.648;2023-05-25T15:10:21;17.20;67.80
71994;DHT22;59861;50.268;8.648;2023-05-25T15:12:48;17.20;67.90
71994;DHT22;59861;50.268;8.648;2023-05-25T15:15:15;17.20;68.10
71994;DHT22;59861;50.268;8.648;2023-05-25T15:17:42;17.30;68.20
71994;DHT22;59861;50.268;8.648;2023-05-25T15:20:09;17.30;68.20
71994;DHT22;59861;50.268;8.648;2023-05-25T15:22:36;17.20;68.10
71994;DHT22;59861;50.268;8.648;2023-05-25T15:25:02;17.30;68.20
71994;DHT22;59861;50.268;8.648;2023-05-25T15:27:29;17.30;68.40
71994;DHT22;59861;50.268;8.648;2023-05-25T15:29:57;17.30;68.30
71994;DHT22;59861;50.268;8.648;2023-05-25T15:32:23;17.20;68.20
71994;DHT22;59861;50.268;8.648;2023-05-25T15:34:50;17.30;68.30
71994;DHT22;59861;50.268;8.648;2023-05-25T15:37:17;17.30;68.20